createdAt,value
2022-11-14T00:01:46.528Z,45.70
2022-11-14T00:07:07.306Z,43.87
2022-11-14T00:12:28.304Z,45.03
2022-11-14T00:17:49.272Z,47.23
2022-11-14T00:23:10.363Z,43.47
2022-11-14T00:28:31.583Z,46.37
2022-11-14T00:33:52.652Z,42.97
2022-11-14T00:39:14.366Z,43.60
2022-11-14T00:44:35.199Z,45.37
2022-11-14T00:49:56.229Z,44.33
2022-11-14T00:55:17.205Z,42.33
2022-11-14T01:00:38.606Z,41.40
2022-11-14T01:06:05.368Z,42.30
2022-11-14T01:11:26.502Z,42.83
2022-11-14T01:16:47.364Z,40.97
2022-11-14T01:22:08.439Z,39.73
2022-11-14T01:27:31.258Z,40.97
2022-11-14T01:32:52.455Z,44.77
2022-11-14T01:38:15.071Z,42.70
2022-11-14T01:43:40.019Z,46.00
2022-11-14T01:49:13.360Z,44.27
2022-11-14T01:54:38.724Z,43.47
2022-11-14T02:00:05.505Z,43.37
2022-11-14T02:05:27.042Z,45.23
2022-11-14T02:10:47.816Z,47.20
2022-11-14T02:16:08.757Z,45.83
2022-11-14T02:21:29.468Z,46.73
2022-11-14T02:26:50.636Z,46.93
2022-11-14T02:33:08.834Z,47.77
2022-11-14T02:38:21.284Z,46.77
2022-11-14T02:43:42.218Z,49.53
2022-11-14T02:49:03.251Z,49.37
2022-11-14T02:54:24.370Z,51.20
2022-11-14T02:59:44.992Z,48.77
2022-11-14T03:05:06.093Z,51.13
2022-11-14T03:10:27.031Z,51.10
2022-11-14T03:15:48.124Z,52.50
2022-11-14T03:21:15.093Z,50.90
2022-11-14T03:26:35.898Z,53.67
2022-11-14T03:31:56.987Z,50.80
2022-11-14T03:37:17.871Z,49.73
2022-11-14T03:42:38.782Z,51.57
2022-11-14T03:47:59.678Z,49.37
2022-11-14T03:53:20.822Z,46.20
2022-11-14T03:58:41.629Z,47.07
2022-11-14T04:04:04.287Z,45.20
2022-11-14T04:09:25.136Z,45.07
2022-11-14T04:14:46.012Z,47.23
2022-11-14T04:20:07.276Z,44.97
2022-11-14T04:25:28.121Z,46.47
2022-11-14T04:30:49.130Z,46.27
2022-11-14T04:36:10.169Z,44.77
2022-11-14T04:41:31.011Z,55.10
2022-11-14T04:46:52.044Z,51.87
2022-11-14T04:52:12.948Z,54.83
2022-11-14T04:57:33.887Z,47.17
2022-11-14T05:02:54.858Z,48.30
2022-11-14T05:08:15.868Z,46.03
2022-11-14T05:13:36.651Z,47.77
2022-11-14T05:18:57.723Z,44.37
2022-11-14T05:24:19.381Z,43.90
2022-11-14T05:29:40.175Z,43.50
2022-11-14T05:35:01.023Z,43.87
2022-11-14T05:40:22.193Z,43.37
2022-11-14T05:45:43.022Z,42.80
2022-11-14T05:51:05.564Z,40.63
2022-11-14T05:56:26.651Z,41.87
2022-11-14T06:01:47.471Z,42.13
2022-11-14T06:07:08.441Z,43.67
2022-11-14T06:12:29.144Z,43.57
2022-11-14T06:17:52.995Z,40.63
2022-11-14T06:23:14.126Z,42.50
2022-11-14T06:28:34.964Z,40.63
2022-11-14T06:33:56.957Z,39.07
2022-11-14T06:39:17.782Z,43.30
2022-11-14T06:44:38.776Z,40.40
2022-11-14T06:49:59.555Z,40.47
2022-11-14T06:55:25.111Z,43.87
2022-11-14T07:00:46.421Z,42.43
2022-11-14T07:06:08.492Z,45.10
2022-11-14T07:11:30.142Z,46.37
2022-11-14T07:16:50.851Z,41.50
2022-11-14T07:22:11.785Z,39.33
2022-11-14T07:27:32.675Z,40.80
2022-11-14T07:32:57.494Z,38.40
2022-11-14T07:38:18.363Z,39.53
2022-11-14T07:43:41.432Z,50.80
2022-11-14T07:49:01.999Z,43.23
2022-11-14T07:54:22.982Z,40.77
2022-11-14T07:59:43.912Z,42.57
2022-11-14T08:05:05.201Z,43.13
2022-11-14T08:10:28.618Z,44.10
2022-11-14T08:15:53.488Z,43.87
2022-11-14T08:21:14.277Z,46.87
2022-11-14T08:26:35.325Z,39.50
2022-11-14T08:31:59.969Z,44.00
2022-11-14T08:37:21.229Z,39.00
2022-11-14T08:42:42.146Z,46.13
2022-11-14T08:48:03.286Z,44.93
2022-11-14T08:53:24.420Z,47.87
2022-11-14T08:58:45.035Z,44.80
2022-11-14T09:04:05.985Z,42.27
2022-11-14T09:09:27.024Z,48.63
2022-11-14T09:14:48.047Z,39.70
2022-11-14T09:20:09.550Z,40.13
2022-11-14T09:25:31.338Z,41.47
2022-11-14T09:30:51.894Z,45.80
2022-11-14T09:36:15.945Z,40.67
2022-11-14T09:41:55.438Z,41.00
2022-11-14T09:47:22.392Z,37.80
2022-11-14T09:53:03.514Z,37.43
2022-11-14T09:58:24.493Z,37.63
2022-11-14T10:03:54.158Z,39.53
2022-11-14T10:09:48.576Z,40.50
2022-11-14T10:15:33.585Z,43.40
2022-11-14T10:20:58.290Z,37.67
2022-11-14T10:26:30.301Z,35.40
2022-11-14T10:32:00.188Z,35.90
2022-11-14T10:37:38.035Z,36.37
2022-11-14T10:43:24.134Z,32.03
2022-11-14T10:48:48.356Z,33.93
2022-11-14T10:54:30.477Z,34.30
2022-11-14T10:59:52.378Z,34.27
2022-11-14T11:05:18.424Z,34.60
2022-11-14T11:11:03.623Z,34.97
2022-11-14T11:16:26.261Z,36.33
2022-11-14T11:21:49.883Z,34.40
2022-11-14T11:27:20.937Z,35.20
2022-11-14T11:32:41.862Z,35.43
2022-11-14T11:38:05.370Z,37.67
2022-11-14T11:44:03.978Z,33.97
2022-11-14T11:49:54.959Z,35.60
2022-11-14T11:55:30.895Z,34.83
2022-11-14T12:00:55.549Z,34.87
2022-11-14T12:06:25.439Z,39.07
2022-11-14T12:11:54.478Z,33.50
2022-11-14T12:17:42.097Z,38.83
2022-11-14T12:23:36.755Z,34.43
2022-11-14T12:29:25.705Z,34.70
2022-11-14T12:34:47.894Z,36.97
2022-11-14T12:40:23.041Z,33.57
2022-11-14T12:45:43.888Z,32.80
2022-11-14T12:51:25.794Z,34.43
2022-11-14T12:57:00.280Z,31.67
2022-11-14T13:02:33.147Z,35.93
2022-11-14T13:08:12.506Z,29.70
2022-11-14T13:14:11.791Z,30.17
2022-11-14T13:19:51.113Z,27.73
2022-11-14T13:25:11.818Z,27.90
2022-11-14T13:31:10.485Z,29.43
2022-11-14T13:36:57.479Z,30.50
2022-11-14T13:42:21.231Z,35.37
2022-11-14T13:47:58.844Z,34.43
2022-11-14T13:53:26.190Z,29.07
2022-11-14T13:59:25.421Z,32.20
2022-11-14T14:05:04.703Z,29.13
2022-11-14T14:10:41.280Z,26.63
2022-11-14T14:16:13.607Z,28.57
2022-11-14T14:21:57.097Z,26.53
2022-11-14T14:27:23.234Z,31.47
2022-11-14T14:32:44.497Z,30.50
2022-11-14T14:38:11.791Z,35.80
2022-11-14T14:43:34.017Z,41.47
2022-11-14T14:48:55.336Z,43.43
2022-11-14T14:54:24.571Z,49.30
2022-11-14T14:59:45.824Z,50.87
2022-11-14T15:05:07.212Z,52.87
2022-11-14T15:10:30.732Z,45.90
2022-11-14T15:15:52.871Z,49.97
2022-11-14T15:21:27.364Z,64.00
2022-11-14T15:26:50.288Z,88.40
2022-11-14T15:32:23.343Z,84.17
2022-11-14T15:38:22.155Z,143.60
2022-11-14T15:43:44.735Z,127.47
2022-11-14T15:49:14.871Z,171.97
2022-11-14T15:54:37.807Z,122.47
2022-11-14T15:59:58.814Z,88.47
2022-11-14T16:05:25.117Z,80.83
2022-11-14T16:10:45.674Z,90.00
2022-11-14T16:16:06.687Z,94.90
2022-11-14T16:21:27.708Z,106.07
2022-11-14T16:26:49.211Z,79.30
2022-11-14T16:32:11.640Z,67.80
2022-11-14T16:37:32.858Z,63.40
2022-11-14T16:43:03.453Z,72.57
2022-11-14T16:48:24.006Z,67.97
2022-11-14T16:53:45.081Z,67.93
2022-11-14T16:59:06.417Z,58.10
2022-11-14T17:04:27.289Z,56.30
2022-11-14T17:09:48.180Z,54.07
2022-11-14T17:15:09.344Z,47.90
2022-11-14T17:20:30.037Z,49.70
2022-11-14T17:25:50.876Z,57.60
2022-11-14T17:31:12.103Z,52.43
2022-11-14T17:36:33.802Z,47.53
2022-11-14T17:41:54.496Z,49.67
2022-11-14T17:47:15.515Z,43.07
2022-11-14T17:52:36.366Z,42.47
2022-11-14T17:57:57.354Z,50.60
2022-11-14T18:03:18.355Z,46.07
2022-11-14T18:08:39.600Z,48.47
2022-11-14T18:14:00.449Z,58.87
2022-11-14T18:19:21.300Z,75.63
2022-11-14T18:24:47.249Z,75.03
2022-11-14T18:30:39.247Z,82.03
2022-11-14T18:36:00.041Z,87.93
2022-11-14T18:41:22.145Z,91.93
2022-11-14T18:46:42.936Z,101.57
2022-11-14T18:52:10.174Z,96.93
2022-11-14T18:57:34.035Z,67.97
2022-11-14T19:02:54.808Z,97.47
2022-11-14T19:08:18.432Z,63.87
2022-11-14T19:13:39.147Z,77.00
2022-11-14T19:19:00.938Z,102.07
2022-11-14T19:24:21.452Z,68.60
2022-11-14T19:29:42.424Z,73.77
2022-11-14T19:35:03.296Z,68.83
2022-11-14T19:40:24.140Z,70.37
2022-11-14T19:45:45.239Z,56.93
2022-11-14T19:51:09.635Z,53.97
2022-11-14T19:56:30.372Z,58.60
2022-11-14T20:01:55.352Z,57.53
2022-11-14T20:07:16.758Z,52.73
2022-11-14T20:12:37.634Z,54.97
2022-11-14T20:17:58.303Z,59.60
2022-11-14T20:23:19.205Z,59.27
2022-11-14T20:28:42.240Z,51.13
2022-11-14T20:34:03.200Z,59.10
2022-11-14T20:39:23.990Z,51.53
2022-11-14T20:44:45.028Z,51.70
2022-11-14T20:50:06.454Z,56.60
2022-11-14T20:55:27.290Z,64.77
2022-11-14T21:00:52.164Z,68.63
2022-11-14T21:06:14.544Z,67.23
2022-11-14T21:11:35.155Z,62.03
2022-11-14T21:16:56.331Z,57.07
2022-11-14T21:22:17.474Z,62.27
2022-11-14T21:27:38.447Z,62.50
2022-11-14T21:32:59.336Z,54.93
2022-11-14T21:38:20.414Z,53.27
2022-11-14T21:43:42.090Z,54.27
2022-11-14T21:49:03.084Z,51.73
2022-11-14T21:54:23.980Z,56.83
2022-11-14T21:59:44.883Z,55.23
2022-11-14T22:05:06.509Z,53.97
2022-11-14T22:10:27.448Z,61.70
2022-11-14T22:15:48.331Z,57.57
2022-11-14T22:21:09.235Z,58.10
2022-11-14T22:26:30.820Z,52.27
2022-11-14T22:31:53.056Z,53.30
2022-11-14T22:37:13.887Z,49.73
2022-11-14T22:42:34.735Z,50.07
2022-11-14T22:47:59.153Z,48.67
2022-11-14T22:53:20.319Z,46.43
2022-11-14T22:58:42.462Z,49.00
2022-11-14T23:04:05.420Z,55.33
2022-11-14T23:09:27.219Z,54.20
2022-11-14T23:14:48.005Z,51.33
2022-11-14T23:20:15.041Z,50.47
2022-11-14T23:25:37.804Z,47.00
2022-11-14T23:30:59.472Z,50.33
2022-11-14T23:36:21.145Z,45.03
2022-11-14T23:41:41.881Z,44.03
2022-11-14T23:47:02.839Z,40.87
2022-11-14T23:52:23.828Z,41.00
2022-11-14T23:57:44.918Z,37.67
